Time;durP1;ratioP1;P1;durP2;ratioP2;P2;SDS_P1;SDS_P2;PMS_P1;PMS_P2;Temp;Humidity;BMP_temperature;BMP_pressure;BME280_temperature;BME280_humidity;BME280_pressure;Samples;Min_cycle;Max_cycle;Signal;HPM_P1;HPM_P2
2024/01/20 00:02:24;;;;;;;4.65;4.20;;;-1.80;99.90;;;;;;5050587;28;20191;-81
2024/01/20 00:04:51;;;;;;;8.52;6.05;;;-1.90;99.90;;;;;;5051037;28;20222;-81
2024/01/20 00:07:17;;;;;;;6.68;6.05;;;-1.90;99.90;;;;;;5047968;28;20199;-81
2024/01/20 00:09:44;;;;;;;11.68;5.85;;;-1.90;99.90;;;;;;5047541;28;20567;-81
2024/01/20 00:12:12;;;;;;;5.60;3.75;;;-1.90;99.90;;;;;;5047808;28;20223;-81
2024/01/20 00:14:39;;;;;;;12.32;6.05;;;-1.90;99.90;;;;;;5050996;28;20195;-81
2024/01/20 00:17:06;;;;;;;13.68;4.97;;;-1.90;99.90;;;;;;5053312;28;20308;-81
2024/01/20 00:19:33;;;;;;;9.35;5.97;;;-1.90;99.90;;;;;;5050572;28;20202;-79
2024/01/20 00:21:59;;;;;;;8.82;6.10;;;-1.90;99.90;;;;;;5047010;28;20259;-81
2024/01/20 00:24:26;;;;;;;3.72;3.53;;;-1.90;99.90;;;;;;5049636;28;20200;-81
2024/01/20 00:26:53;;;;;;;6.65;3.70;;;-2.00;99.90;;;;;;5049417;28;20206;-80
2024/01/20 00:29:21;;;;;;;2.03;1.92;;;-2.00;99.90;;;;;;5048401;28;20200;-81
2024/01/20 00:31:48;;;;;;;4.70;3.78;;;-2.00;99.90;;;;;;5045802;28;20226;-81
2024/01/20 00:34:15;;;;;;;5.82;5.07;;;-2.00;99.90;;;;;;5046944;28;20219;-80
2024/01/20 00:36:42;;;;;;;5.28;3.60;;;-2.10;99.90;;;;;;5049893;28;20200;-79
2024/01/20 00:39:08;;;;;;;10.60;4.88;;;-2.10;99.90;;;;;;5049389;28;20195;-82
2024/01/20 00:41:35;;;;;;;4.68;2.38;;;-2.10;99.90;;;;;;5046470;28;20294;-80
2024/01/20 00:44:02;;;;;;;25.00;6.10;;;-2.10;99.90;;;;;;5046803;28;20224;-81
2024/01/20 00:46:30;;;;;;;10.68;7.60;;;-2.10;99.90;;;;;;5050008;28;20195;-82
2024/01/20 00:48:57;;;;;;;8.52;5.07;;;-2.10;99.90;;;;;;5050857;28;20207;-81
2024/01/20 00:51:23;;;;;;;2.58;2.38;;;-2.10;99.90;;;;;;5046441;28;20690;-81
2024/01/20 00:53:50;;;;;;;6.18;3.20;;;-2.10;99.90;;;;;;5056618;28;20227;-81
2024/01/20 00:56:17;;;;;;;6.50;4.88;;;-2.10;99.90;;;;;;5047541;28;20204;-81
2024/01/20 00:58:44;;;;;;;9.93;7.85;;;-2.10;99.90;;;;;;5049222;28;20206;-81
2024/01/20 01:01:11;;;;;;;5.47;4.13;;;-2.10;99.90;;;;;;5048324;28;20219;-80
2024/01/20 01:03:39;;;;;;;5.70;5.13;;;-2.20;99.90;;;;;;5045833;28;20202;-79
2024/01/20 01:06:06;;;;;;;5.18;4.65;;;-2.20;99.90;;;;;;5045771;28;20242;-82
2024/01/20 01:08:33;;;;;;;6.28;4.63;;;-2.20;99.90;;;;;;5037772;28;20188;-80
2024/01/20 01:10:59;;;;;;;4.93;1.55;;;-2.20;99.90;;;;;;5045782;28;20215;-81
2024/01/20 01:13:26;;;;;;;3.10;2.53;;;-2.20;99.90;;;;;;5048248;28;20215;-82
2024/01/20 01:15:53;;;;;;;10.88;7.65;;;-2.20;99.90;;;;;;5049372;28;20298;-82
2024/01/20 01:18:20;;;;;;;13.80;5.85;;;-2.20;99.90;;;;;;5047180;28;20205;-81
2024/01/20 01:20:48;;;;;;;4.22;3.30;;;-2.30;99.90;;;;;;5045346;28;20235;-82
2024/01/20 01:23:15;;;;;;;5.43;4.57;;;-2.30;99.90;;;;;;5045088;28;20631;-82
2024/01/20 01:25:41;;;;;;;6.90;5.93;;;-2.30;99.90;;;;;;5045643;28;20200;-79
2024/01/20 01:28:08;;;;;;;7.70;6.72;;;-2.30;99.90;;;;;;5045965;28;20196;-81
2024/01/20 01:30:35;;;;;;;6.28;2.85;;;-2.30;99.90;;;;;;5036422;28;20226;-82
2024/01/20 01:33:02;;;;;;;9.27;4.57;;;-2.30;99.90;;;;;;5045091;28;20215;-80
2024/01/20 01:35:29;;;;;;;10.93;8.68;;;-2.30;99.90;;;;;;5048142;28;20738;-81
2024/01/20 01:37:58;;;;;;;10.77;5.97;;;-2.40;99.90;;;;;;5049151;28;20195;-81
2024/01/20 01:40:25;;;;;;;11.35;5.88;;;-2.40;99.90;;;;;;5047095;28;20222;-82
2024/01/20 01:42:56;;;;;;;9.77;5.00;;;-2.30;99.90;;;;;;5045235;28;20194;-81
2024/01/20 01:45:23;;;;;;;10.52;6.75;;;-2.30;99.90;;;;;;5047008;28;20678;-80
2024/01/20 01:47:50;;;;;;;3.05;2.55;;;-2.30;99.90;;;;;;5048008;28;20199;-81
2024/01/20 01:50:16;;;;;;;20.48;9.15;;;-2.30;99.90;;;;;;5047323;28;20223;-82
2024/01/20 01:52:43;;;;;;;19.58;3.85;;;-2.40;99.90;;;;;;5044898;28;20205;-82
2024/01/20 01:55:12;;;;;;;7.97;4.32;;;-2.40;99.90;;;;;;5045401;28;20207;-81
2024/01/20 01:57:39;;;;;;;8.68;7.03;;;-2.40;99.90;;;;;;5045420;28;20593;-81
2024/01/20 02:00:07;;;;;;;5.68;3.10;;;-2.40;99.90;;;;;;5045521;28;20222;-81
2024/01/20 02:02:34;;;;;;;4.80;4.53;;;-2.40;99.90;;;;;;5047658;28;20565;-81
2024/01/20 02:05:01;;;;;;;9.23;6.80;;;-2.50;99.90;;;;;;5041686;28;20196;-81
2024/01/20 02:07:29;;;;;;;25.05;5.40;;;-2.40;99.90;;;;;;5046679;28;20196;-80
2024/01/20 02:09:56;;;;;;;14.05;7.72;;;-2.40;99.90;;;;;;5048113;28;20224;-81
2024/01/20 02:12:26;;;;;;;7.85;3.75;;;-2.40;99.90;;;;;;5052286;28;20597;-81
2024/01/20 02:14:53;;;;;;;7.70;3.78;;;-2.40;99.90;;;;;;5051900;28;20310;-81
2024/01/20 02:17:19;;;;;;;16.95;8.70;;;-2.40;99.90;;;;;;5051384;28;20271;-81
2024/01/20 02:19:46;;;;;;;15.20;6.05;;;-2.40;99.90;;;;;;5048906;28;20200;-82
2024/01/20 02:22:15;;;;;;;6.07;4.93;;;-2.40;99.90;;;;;;5048744;28;20200;-81
2024/01/20 02:24:47;;;;;;;16.27;9.00;;;-2.40;99.90;;;;;;5040860;28;20198;-81
2024/01/20 02:27:14;;;;;;;6.90;4.80;;;-2.40;99.90;;;;;;5048844;28;20210;-78
2024/01/20 02:29:41;;;;;;;7.82;5.03;;;-2.40;99.90;;;;;;5051595;28;20196;-78
2024/01/20 02:32:08;;;;;;;9.20;8.32;;;-2.40;99.90;;;;;;5059317;28;20200;-79
2024/01/20 02:34:36;;;;;;;20.48;5.68;;;-2.40;99.90;;;;;;5057929;28;20688;-82
2024/01/20 02:37:04;;;;;;;15.52;9.20;;;-2.40;99.90;;;;;;5053939;28;20195;-81
2024/01/20 02:39:32;;;;;;;4.05;3.65;;;-2.40;99.90;;;;;;5051256;28;20199;-83
2024/01/20 02:41:58;;;;;;;8.68;6.28;;;-2.40;99.90;;;;;;5049112;28;20195;-83
2024/01/20 02:44:25;;;;;;;15.15;7.80;;;-2.40;99.90;;;;;;5050710;28;20192;-82
2024/01/20 02:46:52;;;;;;;5.97;5.13;;;-2.40;99.90;;;;;;5052300;28;20187;-81
2024/01/20 02:49:19;;;;;;;5.55;3.90;;;-2.40;99.90;;;;;;5051375;28;20195;-82
2024/01/20 02:51:45;;;;;;;8.18;4.75;;;-2.40;99.90;;;;;;5048327;28;20224;-81
2024/01/20 02:54:12;;;;;;;8.55;4.90;;;-2.40;99.90;;;;;;5048563;28;20220;-82
2024/01/20 02:56:40;;;;;;;6.80;5.38;;;-2.40;99.90;;;;;;5051361;28;20202;-81
2024/01/20 02:59:07;;;;;;;16.70;7.70;;;-2.40;99.90;;;;;;5051853;28;20199;-81
2024/01/20 03:01:34;;;;;;;13.68;7.60;;;-2.40;99.90;;;;;;5051240;28;20227;-80
2024/01/20 03:04:00;;;;;;;10.23;6.25;;;-2.50;99.90;;;;;;5051902;28;20191;-81
2024/01/20 03:06:27;;;;;;;11.40;9.02;;;-2.50;99.90;;;;;;5051765;28;20205;-82
2024/01/20 03:08:54;;;;;;;14.43;6.43;;;-2.50;99.90;;;;;;5051734;28;20202;-82
2024/01/20 03:11:21;;;;;;;9.65;8.77;;;-2.50;99.90;;;;;;5051737;28;20247;-81
2024/01/20 03:13:49;;;;;;;7.93;5.70;;;-2.60;99.90;;;;;;5051759;28;20282;-82
2024/01/20 03:16:16;;;;;;;8.05;7.30;;;-2.60;99.90;;;;;;5052098;28;20597;-83
2024/01/20 03:18:43;;;;;;;11.13;7.55;;;-2.60;99.90;;;;;;5048411;28;20210;-81
2024/01/20 03:21:09;;;;;;;21.88;7.78;;;-2.70;99.90;;;;;;5048192;28;20215;-82
2024/01/20 03:23:36;;;;;;;12.90;7.32;;;-2.70;99.90;;;;;;5050852;28;20200;-82
2024/01/20 03:26:07;;;;;;;9.23;5.10;;;-2.60;99.90;;;;;;5051851;28;20221;-80
2024/01/20 03:28:34;;;;;;;4.13;3.65;;;-2.60;99.90;;;;;;5051622;28;20203;-81
2024/01/20 03:31:02;;;;;;;9.65;6.38;;;-2.60;99.90;;;;;;5052040;28;20609;-83
2024/01/20 03:33:29;;;;;;;6.88;2.45;;;-2.60;99.90;;;;;;5060708;28;20569;-82
2024/01/20 03:35:56;;;;;;;14.60;10.32;;;-2.60;99.90;;;;;;5051667;28;20195;-80
2024/01/20 03:38:22;;;;;;;9.27;5.05;;;-2.70;99.90;;;;;;5051294;28;20578;-80
2024/01/20 03:40:49;;;;;;;14.60;7.93;;;-2.70;99.90;;;;;;5051783;28;20215;-82
2024/01/20 03:43:16;;;;;;;7.75;6.75;;;-2.70;99.90;;;;;;5051130;28;20207;-81
2024/01/20 03:45:44;;;;;;;6.15;4.70;;;-2.70;99.90;;;;;;5048028;28;20196;-81
2024/01/20 03:48:12;;;;;;;13.43;5.05;;;-2.70;99.90;;;;;;5047489;28;20624;-81
2024/01/20 03:50:39;;;;;;;18.83;8.45;;;-2.70;99.90;;;;;;5049403;28;20224;-81
2024/01/20 03:53:06;;;;;;;20.08;8.23;;;-2.80;99.90;;;;;;5052749;28;20196;-81
2024/01/20 03:55:33;;;;;;;16.80;10.02;;;-2.80;99.90;;;;;;5048336;28;20691;-81
2024/01/20 03:58:00;;;;;;;6.88;5.35;;;-2.70;99.90;;;;;;5051166;28;20291;-82
2024/01/20 04:00:27;;;;;;;11.10;5.93;;;-2.70;99.90;;;;;;5049610;28;20226;-82
2024/01/20 04:02:54;;;;;;;3.38;3.17;;;-2.70;99.90;;;;;;5047216;28;20667;-82
2024/01/20 04:05:22;;;;;;;11.15;6.28;;;-2.70;99.90;;;;;;5047095;28;20199;-80
2024/01/20 04:07:49;;;;;;;8.68;7.13;;;-2.60;99.90;;;;;;5039206;28;20211;-81
2024/01/20 04:10:16;;;;;;;4.40;3.65;;;-2.60;99.90;;;;;;5045708;28;20227;-81
2024/01/20 04:12:44;;;;;;;13.60;6.35;;;-2.60;99.90;;;;;;5049783;28;20250;-82
2024/01/20 04:15:10;;;;;;;9.48;3.75;;;-2.60;99.90;;;;;;5050910;28;20283;-82
2024/01/20 04:17:37;;;;;;;7.18;5.35;;;-2.60;99.90;;;;;;5048495;28;20295;-82
2024/01/20 04:20:05;;;;;;;1.05;1.05;;;-2.50;99.90;;;;;;5048083;28;20215;-81
2024/01/20 04:22:33;;;;;;;6.45;3.85;;;-2.50;99.90;;;;;;5048587;28;20204;-79
2024/01/20 04:25:00;;;;;;;10.88;7.47;;;-2.60;99.90;;;;;;5051786;28;20214;-80
2024/01/20 04:27:27;;;;;;;5.72;5.15;;;-2.60;99.90;;;;;;5050667;28;20206;-80
2024/01/20 04:29:53;;;;;;;8.90;4.15;;;-2.60;99.90;;;;;;5043379;28;20219;-82
2024/01/20 04:32:20;;;;;;;1.70;1.60;;;-2.60;99.90;;;;;;5051207;28;20213;-80
2024/01/20 04:34:47;;;;;;;9.80;6.35;;;-2.60;99.90;;;;;;5050375;28;20219;-81
2024/01/20 04:37:14;;;;;;;8.63;2.60;;;-2.60;99.90;;;;;;5051201;28;20203;-81
2024/01/20 04:39:42;;;;;;;8.93;6.47;;;-2.60;99.90;;;;;;5048804;28;20201;-81
2024/01/20 04:42:08;;;;;;;11.23;6.63;;;-2.60;99.90;;;;;;5047039;28;20206;-82
2024/01/20 04:44:35;;;;;;;22.60;4.82;;;-2.60;99.90;;;;;;5047814;28;20660;-81
2024/01/20 04:47:02;;;;;;;4.95;4.50;;;-2.60;99.90;;;;;;5050862;28;20196;-81
2024/01/20 04:49:29;;;;;;;4.75;3.78;;;-2.70;99.90;;;;;;5058659;28;20214;-81
2024/01/20 04:51:57;;;;;;;9.30;5.68;;;-2.60;99.90;;;;;;5053142;28;20245;-82
2024/01/20 04:54:24;;;;;;;10.65;6.18;;;-2.70;99.90;;;;;;5059974;28;20215;-82
2024/01/20 04:56:52;;;;;;;20.20;7.20;;;-2.70;99.90;;;;;;5051248;28;20195;-81
2024/01/20 04:59:18;;;;;;;7.15;3.08;;;-2.60;99.90;;;;;;5063562;28;20211;-78
2024/01/20 05:01:48;;;;;;;5.38;3.65;;;-2.60;99.90;;;;;;5067584;28;20246;-79
2024/01/20 05:04:14;;;;;;;16.23;3.10;;;-2.60;99.90;;;;;;5071638;28;20208;-80
2024/01/20 05:06:45;;;;;;;29.00;6.63;;;-2.60;99.90;;;;;;5059465;28;20187;-80
2024/01/20 05:09:12;;;;;;;14.55;5.20;;;-2.60;99.90;;;;;;5070743;28;20207;-80
2024/01/20 05:11:39;;;;;;;8.35;7.20;;;-2.60;99.90;;;;;;5066782;28;20218;-78
2024/01/20 05:14:07;;;;;;;16.30;5.72;;;-2.60;99.90;;;;;;5077447;28;20221;-78
2024/01/20 05:16:33;;;;;;;18.15;11.05;;;-2.60;99.90;;;;;;5068725;28;20176;-79
2024/01/20 05:19:00;;;;;;;7.60;5.95;;;-2.60;99.90;;;;;;5064423;28;21072;-79
2024/01/20 05:21:27;;;;;;;16.50;5.65;;;-2.60;99.90;;;;;;5065230;28;20271;-79
2024/01/20 05:23:54;;;;;;;7.00;6.30;;;-2.60;99.90;;;;;;5067992;28;20195;-79
2024/01/20 05:26:21;;;;;;;4.70;3.85;;;-2.60;99.90;;;;;;5064427;28;20192;-81
2024/01/20 05:28:48;;;;;;;6.68;4.40;;;-2.60;99.90;;;;;;5049501;28;20286;-80
2024/01/20 05:31:16;;;;;;;9.40;8.35;;;-2.60;99.90;;;;;;5050251;28;20234;-82
2024/01/20 05:33:43;;;;;;;4.60;3.63;;;-2.60;99.90;;;;;;5049764;28;20856;-83
2024/01/20 05:36:12;;;;;;;5.22;4.28;;;-2.60;99.90;;;;;;5044626;28;20219;-82
2024/01/20 05:38:39;;;;;;;8.02;3.50;;;-2.70;99.90;;;;;;5037931;28;20568;-81
2024/01/20 05:41:07;;;;;;;7.43;6.68;;;-2.70;99.90;;;;;;5043247;28;20219;-82
2024/01/20 05:43:34;;;;;;;5.25;3.75;;;-2.70;99.90;;;;;;5049264;28;20213;-81
2024/01/20 05:46:05;;;;;;;5.13;3.75;;;-2.80;99.90;;;;;;5041805;28;20195;-83
2024/01/20 05:48:33;;;;;;;9.55;6.00;;;-2.70;99.90;;;;;;5049859;28;20209;-80
2024/01/20 05:51:00;;;;;;;6.03;4.88;;;-2.70;99.90;;;;;;5049789;28;20219;-81
2024/01/20 05:53:27;;;;;;;14.13;7.45;;;-2.70;99.90;;;;;;5049805;28;20203;-82
2024/01/20 05:55:54;;;;;;;19.10;9.20;;;-2.70;99.90;;;;;;5046277;28;20207;-82
2024/01/20 05:58:21;;;;;;;18.98;6.47;;;-2.80;99.90;;;;;;5045543;28;20200;-81
2024/01/20 06:00:47;;;;;;;8.93;4.88;;;-2.80;99.90;;;;;;5048302;28;20226;-82
2024/01/20 06:03:14;;;;;;;7.03;5.55;;;-2.80;99.90;;;;;;5049274;28;20719;-82
2024/01/20 06:05:42;;;;;;;7.13;5.57;;;-2.80;99.90;;;;;;5049013;28;20201;-82
2024/01/20 06:08:09;;;;;;;16.45;8.50;;;-2.80;99.90;;;;;;5049299;28;20201;-82
2024/01/20 06:10:36;;;;;;;3.58;3.28;;;-2.80;99.90;;;;;;5048660;28;20226;-79
2024/01/20 06:13:02;;;;;;;13.43;6.20;;;-2.70;99.90;;;;;;5046070;28;20204;-82
2024/01/20 06:15:29;;;;;;;12.02;5.53;;;-2.80;99.90;;;;;;5046257;28;20229;-81
2024/01/20 06:17:56;;;;;;;3.50;3.08;;;-2.80;99.90;;;;;;5048636;28;20192;-82
2024/01/20 06:20:23;;;;;;;7.70;6.95;;;-2.80;99.90;;;;;;5049702;28;20225;-80
2024/01/20 06:22:51;;;;;;;13.48;6.43;;;-2.80;99.90;;;;;;5055175;28;20270;-81
2024/01/20 06:25:18;;;;;;;13.15;8.82;;;-2.90;99.90;;;;;;5045664;28;20199;-81
2024/01/20 06:27:45;;;;;;;5.88;3.28;;;-2.90;99.90;;;;;;5047170;28;20241;-82
2024/01/20 06:30:13;;;;;;;6.60;5.63;;;-2.90;99.90;;;;;;5049766;28;20219;-81
2024/01/20 06:32:39;;;;;;;14.13;7.68;;;-2.90;99.90;;;;;;5048930;28;20208;-81
2024/01/20 06:35:08;;;;;;;19.02;6.88;;;-2.90;99.90;;;;;;5045981;28;20215;-81
2024/01/20 06:37:35;;;;;;;7.72;3.60;;;-2.90;99.90;;;;;;5046191;28;20244;-82
2024/01/20 06:40:03;;;;;;;2.88;2.28;;;-2.90;99.90;;;;;;5045763;28;20216;-82
2024/01/20 06:42:30;;;;;;;19.48;9.35;;;-3.00;99.90;;;;;;5046001;28;20659;-82
2024/01/20 06:44:57;;;;;;;13.57;7.47;;;-3.10;99.90;;;;;;5046178;28;20192;-81
2024/01/20 06:47:25;;;;;;;12.80;6.38;;;-3.10;99.90;;;;;;5049162;28;20200;-81
2024/01/20 06:49:53;;;;;;;8.73;5.90;;;-3.10;99.90;;;;;;5049110;28;20208;-80
2024/01/20 06:52:20;;;;;;;10.23;3.67;;;-3.20;99.90;;;;;;5051841;28;20200;-81
2024/01/20 06:54:47;;;;;;;7.85;4.97;;;-3.20;99.90;;;;;;5049254;28;20222;-81
2024/01/20 06:57:15;;;;;;;3.55;3.05;;;-3.20;99.90;;;;;;5050966;28;20199;-81
2024/01/20 06:59:42;;;;;;;3.17;2.90;;;-3.10;99.90;;;;;;5059168;28;20551;-81
2024/01/20 07:02:08;;;;;;;5.50;3.45;;;-3.10;99.90;;;;;;5062707;28;20268;-80
2024/01/20 07:04:35;;;;;;;8.65;3.40;;;-3.10;99.90;;;;;;5046116;28;20200;-83
2024/01/20 07:07:02;;;;;;;5.32;2.92;;;-3.10;99.90;;;;;;5061667;28;20207;-77
2024/01/20 07:09:28;;;;;;;4.45;4.00;;;-3.20;99.90;;;;;;5059650;28;20205;-80
2024/01/20 07:11:57;;;;;;;1.45;1.45;;;-3.10;99.90;;;;;;5053912;28;20219;-80
2024/01/20 07:14:25;;;;;;;6.53;3.83;;;-3.10;99.90;;;;;;5050909;28;20199;-80
2024/01/20 07:16:52;;;;;;;5.75;4.22;;;-3.10;99.90;;;;;;5054572;28;20209;-80
2024/01/20 07:19:19;;;;;;;8.25;3.50;;;-3.10;99.90;;;;;;5049834;28;20207;-80
2024/01/20 07:21:46;;;;;;;2.17;2.08;;;-3.10;99.90;;;;;;5050238;28;20220;-81
2024/01/20 07:24:12;;;;;;;6.15;4.43;;;-3.10;99.90;;;;;;5046585;28;20575;-80
2024/01/20 07:26:39;;;;;;;5.70;4.65;;;-3.20;99.90;;;;;;5047850;28;20199;-80
2024/01/20 07:29:06;;;;;;;7.45;5.07;;;-3.10;99.90;;;;;;5055920;28;20202;-80
2024/01/20 07:31:34;;;;;;;9.90;5.63;;;-3.20;99.90;;;;;;5046551;28;20243;-80
2024/01/20 07:34:01;;;;;;;9.80;4.95;;;-3.20;99.90;;;;;;5047820;28;20219;-80
2024/01/20 07:36:27;;;;;;;6.30;2.90;;;-3.10;99.90;;;;;;5049803;28;20590;-79
2024/01/20 07:38:54;;;;;;;7.20;4.60;;;-3.10;99.90;;;;;;5039906;28;20204;-80
2024/01/20 07:41:21;;;;;;;8.27;4.22;;;-3.10;99.90;;;;;;5048522;28;20263;-80
2024/01/20 07:43:48;;;;;;;4.55;3.63;;;-3.20;99.90;;;;;;5039267;28;20663;-81
2024/01/20 07:46:14;;;;;;;11.02;6.30;;;-3.10;99.90;;;;;;5048747;28;20199;-79
2024/01/20 07:48:43;;;;;;;5.65;3.97;;;-3.20;99.90;;;;;;5048273;28;20195;-78
2024/01/20 07:51:09;;;;;;;5.88;4.28;;;-3.20;99.90;;;;;;5028407;28;20250;-80
2024/01/20 07:53:36;;;;;;;9.35;6.47;;;-3.20;99.90;;;;;;5044309;28;20196;-80
2024/01/20 07:56:03;;;;;;;2.67;1.75;;;-3.20;99.90;;;;;;5046130;28;20219;-80
2024/01/20 07:58:30;;;;;;;5.30;4.82;;;-3.10;99.90;;;;;;5047055;28;20203;-79
2024/01/20 08:00:57;;;;;;;8.73;5.20;;;-3.20;99.90;;;;;;5048140;28;20234;-80
2024/01/20 08:03:24;;;;;;;13.95;7.63;;;-3.10;99.90;;;;;;5047421;28;20199;-80
2024/01/20 08:05:52;;;;;;;11.52;3.55;;;-3.20;99.90;;;;;;5045984;28;20575;-80
2024/01/20 08:08:19;;;;;;;14.85;8.70;;;-3.30;99.90;;;;;;5045201;28;20722;-79
2024/01/20 08:10:45;;;;;;;12.73;7.88;;;-3.20;99.90;;;;;;5045885;28;20594;-78
2024/01/20 08:13:12;;;;;;;18.45;6.85;;;-3.20;99.90;;;;;;5042950;28;20196;-80
2024/01/20 08:15:39;;;;;;;5.82;4.35;;;-3.00;99.90;;;;;;5042615;28;20238;-81
2024/01/20 08:18:06;;;;;;;5.63;2.65;;;-2.90;99.90;;;;;;5042852;28;20587;-80
2024/01/20 08:20:33;;;;;;;7.68;5.68;;;-2.70;99.90;;;;;;5034713;28;20228;-81
2024/01/20 08:23:01;;;;;;;11.43;5.40;;;-2.70;99.90;;;;;;5045099;28;20203;-80
2024/01/20 08:25:28;;;;;;;4.80;4.38;;;-2.60;99.90;;;;;;5047645;28;20217;-80
2024/01/20 08:27:54;;;;;;;7.15;3.78;;;-2.50;99.90;;;;;;5045860;28;20202;-81
2024/01/20 08:30:21;;;;;;;7.82;6.70;;;-2.30;99.90;;;;;;5043917;28;20219;-81
2024/01/20 08:32:48;;;;;;;8.60;4.72;;;-2.10;99.90;;;;;;5050923;28;20195;-79
2024/01/20 08:35:15;;;;;;;2.35;1.65;;;-1.80;99.90;;;;;;5064053;28;20219;-79
2024/01/20 08:37:41;;;;;;;5.35;2.33;;;-1.50;99.90;;;;;;5064277;28;20226;-80
2024/01/20 08:40:10;;;;;;;10.30;5.95;;;-1.10;99.90;;;;;;5059069;28;20218;-82
2024/01/20 08:42:37;;;;;;;4.22;3.42;;;-0.80;99.90;;;;;;5058932;28;20225;-82
2024/01/20 08:45:04;;;;;;;1.08;0.98;;;-0.50;99.90;;;;;;5041607;28;20577;-82
2024/01/20 08:47:31;;;;;;;6.05;4.32;;;-0.30;99.90;;;;;;5044901;28;20206;-82
2024/01/20 08:49:58;;;;;;;4.53;3.65;;;-0.40;99.90;;;;;;5048229;28;20229;-81
2024/01/20 08:52:25;;;;;;;4.53;3.80;;;-0.90;99.90;;;;;;5042788;28;20203;-80
2024/01/20 08:54:51;;;;;;;5.10;3.60;;;-1.30;99.90;;;;;;5049068;28;20671;-81
2024/01/20 08:57:20;;;;;;;5.72;4.97;;;-1.40;99.90;;;;;;5046266;28;20196;-82
2024/01/20 08:59:47;;;;;;;5.05;2.63;;;-1.50;99.90;;;;;;5047186;28;20204;-81
2024/01/20 09:02:13;;;;;;;5.28;4.28;;;-1.20;99.90;;;;;;5045885;28;20305;-81
2024/01/20 09:04:40;;;;;;;6.53;2.35;;;-0.70;99.90;;;;;;5046392;28;20204;-82
2024/01/20 09:07:07;;;;;;;2.55;2.35;;;-0.30;99.90;;;;;;5054286;28;20195;-82
2024/01/20 09:09:33;;;;;;;2.60;2.50;;;0.00;99.90;;;;;;5043991;28;20206;-82
2024/01/20 09:12:00;;;;;;;1.30;1.30;;;0.30;99.90;;;;;;5048219;28;20199;-82
2024/01/20 09:14:28;;;;;;;3.90;2.58;;;0.70;99.90;;;;;;5046018;28;20222;-82
2024/01/20 09:16:55;;;;;;;3.08;1.27;;;0.90;99.90;;;;;;5048473;28;20216;-80
2024/01/20 09:19:22;;;;;;;3.22;3.03;;;1.10;99.90;;;;;;5054573;28;20191;-79
2024/01/20 09:21:49;;;;;;;2.80;2.60;;;1.10;99.90;;;;;;5051920;28;20220;-81
2024/01/20 09:24:15;;;;;;;4.32;2.45;;;1.20;99.90;;;;;;5055009;28;20664;-82
2024/01/20 09:26:42;;;;;;;1.60;1.50;;;0.90;99.90;;;;;;5046649;28;20206;-80
2024/01/20 09:29:09;;;;;;;5.97;4.10;;;1.00;99.90;;;;;;5046248;28;20213;-80
2024/01/20 09:31:37;;;;;;;1.25;1.05;;;1.20;99.90;;;;;;5053995;28;20226;-79
2024/01/20 09:34:04;;;;;;;5.47;2.90;;;1.30;99.90;;;;;;5048727;28;20562;-80
2024/01/20 09:36:31;;;;;;;5.85;1.88;;;1.20;99.90;;;;;;5045917;28;20572;-78
2024/01/20 09:38:57;;;;;;;3.13;1.92;;;0.90;99.90;;;;;;5045718;28;20574;-81
2024/01/20 09:41:25;;;;;;;2.97;2.30;;;0.70;99.90;;;;;;5045662;28;20588;-81
2024/01/20 09:43:52;;;;;;;5.95;3.55;;;0.30;99.90;;;;;;5046252;28;20575;-80
2024/01/20 09:46:19;;;;;;;5.35;1.50;;;0.40;99.90;;;;;;5037863;28;20200;-82
2024/01/20 09:48:50;;;;;;;3.33;3.03;;;0.40;99.90;;;;;;5046085;28;20195;-82
2024/01/20 09:51:24;;;;;;;3.05;2.15;;;0.50;99.90;;;;;;5037804;28;20269;-81
2024/01/20 09:53:54;;;;;;;3.78;2.70;;;0.40;99.90;;;;;;5052981;28;20734;-82
2024/01/20 09:56:21;;;;;;;5.28;3.90;;;0.90;99.90;;;;;;5049058;28;20207;-82
2024/01/20 09:58:50;;;;;;;4.90;1.83;;;1.40;99.90;;;;;;5050480;28;20203;-80
2024/01/20 10:01:17;;;;;;;7.38;3.15;;;1.40;99.90;;;;;;5053982;28;20226;-81
2024/01/20 10:03:44;;;;;;;2.55;1.45;;;1.40;99.90;;;;;;5046748;28;20196;-80
2024/01/20 10:06:12;;;;;;;7.13;2.35;;;1.10;99.90;;;;;;5047496;28;20203;-81
2024/01/20 10:08:39;;;;;;;4.68;2.60;;;0.80;99.90;;;;;;5051260;28;20195;-82
2024/01/20 10:11:07;;;;;;;7.57;4.47;;;0.40;99.90;;;;;;5045528;28;20226;-82
2024/01/20 10:13:33;;;;;;;2.70;2.50;;;0.20;99.90;;;;;;5045960;28;20202;-82
2024/01/20 10:16:00;;;;;;;7.43;2.72;;;0.20;99.90;;;;;;5044536;28;20211;-82
2024/01/20 10:18:28;;;;;;;3.90;2.47;;;0.20;99.90;;;;;;5045320;28;20195;-81
2024/01/20 10:21:02;;;;;;;8.07;2.38;;;0.60;99.90;;;;;;5053211;28;20215;-81
2024/01/20 10:23:30;;;;;;;2.97;2.42;;;0.90;99.90;;;;;;5038141;28;20199;-80
2024/01/20 10:26:01;;;;;;;1.80;1.70;;;0.60;99.90;;;;;;5054019;28;20195;-79
2024/01/20 10:28:28;;;;;;;1.70;1.60;;;0.80;99.90;;;;;;5052914;28;20195;-82
2024/01/20 10:30:55;;;;;;;4.47;2.85;;;1.40;99.90;;;;;;5050037;28;20227;-80
2024/01/20 10:33:22;;;;;;;3.03;2.75;;;1.80;99.90;;;;;;5062478;28;20196;-80
2024/01/20 10:35:50;;;;;;;3.55;2.25;;;2.20;99.90;;;;;;5069495;28;20234;-81
2024/01/20 10:38:20;;;;;;;1.17;1.08;;;2.20;99.90;;;;;;5062541;28;20200;-80
2024/01/20 10:40:52;;;;;;;2.00;1.90;;;2.20;99.90;;;;;;5050564;28;20220;-83
2024/01/20 10:43:20;;;;;;;0.80;0.80;;;2.30;99.90;;;;;;5049316;28;20204;-82
2024/01/20 10:45:59;;;;;;;9.50;4.70;;;2.30;99.90;;;;;;5049033;28;20566;-81
2024/01/20 10:48:27;;;;;;;6.25;2.10;;;2.20;99.90;;;;;;5041145;28;20199;-81
2024/01/20 10:50:58;;;;;;;2.65;1.70;;;2.50;99.90;;;;;;5048207;28;20224;-82
2024/01/20 10:53:26;;;;;;;1.67;1.38;;;2.90;99.90;;;;;;5049003;28;20192;-82
2024/01/20 10:55:55;;;;;;;5.18;2.60;;;2.70;99.90;;;;;;5056020;28;20689;-82
2024/01/20 10:58:28;;;;;;;3.95;2.95;;;3.10;99.90;;;;;;5041742;28;20566;-82
2024/01/20 11:00:55;;;;;;;0.80;0.80;;;3.40;99.90;;;;;;5056886;28;20210;-81
2024/01/20 11:03:22;;;;;;;3.65;2.00;;;3.70;99.90;;;;;;5051217;28;20201;-81
2024/01/20 11:05:49;;;;;;;5.07;1.20;;;3.90;99.90;;;;;;5051841;28;20199;-82
2024/01/20 11:08:24;;;;;;;7.93;3.45;;;4.20;99.90;;;;;;5049851;28;20209;-83
2024/01/20 11:10:54;;;;;;;3.08;2.15;;;4.00;99.90;;;;;;5046520;28;20276;-82
2024/01/20 11:13:25;;;;;;;1.60;1.52;;;3.80;99.90;;;;;;5049344;28;20229;-81
2024/01/20 11:15:53;;;;;;;2.88;1.75;;;3.60;99.90;;;;;;5048564;28;20196;-82
2024/01/20 11:18:21;;;;;;;3.75;2.42;;;3.40;99.90;;;;;;5049109;28;20201;-82
2024/01/20 11:20:57;;;;;;;4.32;2.10;;;2.80;99.90;;;;;;5048237;28;20215;-82
2024/01/20 11:23:24;;;;;;;1.67;1.58;;;2.80;99.90;;;;;;5058631;28;20203;-82
2024/01/20 11:25:50;;;;;;;2.67;1.45;;;2.60;99.90;;;;;;5044467;28;20211;-82
2024/01/20 11:28:26;;;;;;;3.08;2.78;;;2.80;99.90;;;;;;5049791;28;20200;-82
2024/01/20 11:30:53;;;;;;;1.77;1.77;;;2.60;99.90;;;;;;5052503;28;20276;-83
2024/01/20 11:33:20;;;;;;;0.88;0.88;;;2.40;99.90;;;;;;5048189;28;20461;-83
2024/01/20 11:35:47;;;;;;;0.90;0.90;;;2.30;99.90;;;;;;5050714;28;20198;-80
2024/01/20 11:38:15;;;;;;;0.90;0.90;;;2.50;99.90;;;;;;5058075;28;20214;-78
2024/01/20 11:40:42;;;;;;;2.25;2.05;;;2.50;99.90;;;;;;5060045;28;20228;-81
2024/01/20 11:43:11;;;;;;;0.60;0.60;;;2.40;99.90;;;;;;5056028;28;20199;-82
2024/01/20 11:45:39;;;;;;;2.25;2.15;;;2.80;99.90;;;;;;5054948;28;20200;-83
2024/01/20 11:48:07;;;;;;;1.50;1.10;;;3.20;99.90;;;;;;5046915;28;20607;-80
2024/01/20 11:50:34;;;;;;;2.05;1.73;;;3.70;99.90;;;;;;5051215;28;20594;-82
2024/01/20 11:53:01;;;;;;;1.75;1.25;;;4.30;99.90;;;;;;5051814;28;20199;-81
2024/01/20 11:55:28;;;;;;;0.50;0.40;;;4.50;99.90;;;;;;5050460;28;20194;-83
2024/01/20 11:57:55;;;;;;;1.08;0.98;;;4.70;99.90;;;;;;5050737;28;20301;-83
2024/01/20 12:00:22;;;;;;;0.50;0.50;;;4.90;99.90;;;;;;5042263;28;20627;-83
2024/01/20 12:02:52;;;;;;;2.95;1.38;;;5.00;99.90;;;;;;5050882;28;20195;-83
2024/01/20 12:05:19;;;;;;;0.70;0.70;;;5.60;99.90;;;;;;5041343;28;20576;-83
2024/01/20 12:07:46;;;;;;;5.18;1.15;;;6.00;99.90;;;;;;5039297;28;20223;-82
2024/01/20 12:10:15;;;;;;;1.05;0.80;;;6.70;99.90;;;;;;5040350;28;20222;-83
2024/01/20 12:13:01;;;;;;;0.73;0.73;;;7.00;99.60;;;;;;5115307;27;20545;-80
2024/01/20 12:15:33;;;;;;;2.45;2.25;;;6.70;98.20;;;;;;5115463;28;20209;-81
2024/01/20 12:17:59;;;;;;;0.75;0.75;;;6.50;97.80;;;;;;5115502;28;20205;-82
2024/01/20 12:20:26;;;;;;;1.13;0.60;;;6.20;98.40;;;;;;5109006;28;20656;-80
2024/01/20 12:22:56;;;;;;;1.08;0.93;;;5.80;99.50;;;;;;5094186;28;20202;-81
2024/01/20 12:25:23;;;;;;;0.50;0.50;;;5.50;99.90;;;;;;5094101;28;20197;-81
2024/01/20 12:27:50;;;;;;;1.33;1.23;;;6.00;99.90;;;;;;5094887;28;20609;-81
2024/01/20 12:30:20;;;;;;;0.50;0.40;;;6.20;99.70;;;;;;5094117;28;20248;-81
2024/01/20 12:32:46;;;;;;;0.50;0.40;;;6.30;98.20;;;;;;5094182;28;20696;-82
2024/01/20 12:35:13;;;;;;;1.73;0.93;;;6.00;98.20;;;;;;5093532;28;20204;-81
2024/01/20 12:37:40;;;;;;;1.13;1.00;;;5.40;99.20;;;;;;5093852;28;20196;-81
2024/01/20 12:40:08;;;;;;;0.50;0.50;;;5.00;99.90;;;;;;5094593;28;20218;-83
2024/01/20 12:42:36;;;;;;;0.50;0.50;;;4.30;99.90;;;;;;5093841;28;20565;-81
2024/01/20 12:45:03;;;;;;;0.57;0.50;;;4.10;99.90;;;;;;5094468;28;20204;-81
2024/01/20 12:47:31;;;;;;;1.52;1.42;;;4.00;99.90;;;;;;5093116;28;20197;-80
2024/01/20 12:49:58;;;;;;;1.80;1.67;;;3.70;99.90;;;;;;5094043;28;20221;-81